Time;durP1;ratioP1;P1;durP2;ratioP2;P2;SDS_P1;SDS_P2;PMS_P1;PMS_P2;Temp;Humidity;BMP_temperature;BMP_pressure;BME280_temperature;BME280_humidity;BME280_pressure;Samples;Min_cycle;Max_cycle;Signal;HPM_P1;HPM_P2
2022/07/07 00:01:48;;;;;;;5.25;2.50;;;;;;;15.30;97.69;101940.28;5057619;28;20094;-83
2022/07/07 00:04:14;;;;;;;5.47;2.13;;;;;;;15.32;97.64;101940.97;5039485;28;20484;-84
2022/07/07 00:06:40;;;;;;;6.35;1.98;;;;;;;15.33;97.54;101941.81;5067679;28;20041;-83
2022/07/07 00:09:06;;;;;;;6.55;1.92;;;;;;;15.24;97.51;101944.31;5054253;28;20463;-84
2022/07/07 00:11:32;;;;;;;4.78;2.28;;;;;;;15.22;97.89;101938.31;5072795;28;20032;-83
2022/07/07 00:13:58;;;;;;;3.25;1.80;;;;;;;15.20;97.80;101947.41;5072786;28;20393;-84
2022/07/07 00:16:24;;;;;;;5.95;2.25;;;;;;;15.19;97.76;101941.25;5055335;28;20032;-84
2022/07/07 00:18:50;;;;;;;4.47;2.17;;;;;;;15.19;97.55;101946.59;5054240;28;20187;-83
2022/07/07 00:21:16;;;;;;;4.47;1.83;;;;;;;15.13;97.86;101937.31;5053271;28;20036;-84
2022/07/07 00:23:43;;;;;;;4.78;2.42;;;;;;;15.10;97.78;101942.91;5039520;28;20038;-83
2022/07/07 00:26:09;;;;;;;4.07;2.15;;;;;;;15.07;98.11;101945.00;5038709;28;20503;-84
2022/07/07 00:28:35;;;;;;;3.60;1.67;;;;;;;15.00;98.32;101947.38;5056526;28;20040;-82
2022/07/07 00:31:01;;;;;;;6.80;1.90;;;;;;;15.03;98.31;101949.78;5040344;28;20036;-83
2022/07/07 00:33:27;;;;;;;3.60;1.95;;;;;;;15.06;98.07;101961.97;5053846;28;20028;-83
2022/07/07 00:35:53;;;;;;;3.35;2.00;;;;;;;15.05;98.03;101957.63;5069678;28;20036;-84
2022/07/07 00:38:19;;;;;;;4.22;1.80;;;;;;;15.05;97.90;101961.09;5070835;28;20032;-84
2022/07/07 00:40:50;;;;;;;4.38;1.80;;;;;;;15.07;97.88;101956.50;5064684;28;20033;-83
2022/07/07 00:43:16;;;;;;;4.63;2.10;;;;;;;15.08;97.80;101960.84;5023635;28;20111;-83
2022/07/07 00:45:48;;;;;;;2.75;1.70;;;;;;;15.04;97.93;101963.91;5055374;28;20041;-83
2022/07/07 00:48:19;;;;;;;2.10;1.30;;;;;;;14.96;98.25;101964.59;5056057;28;20059;-84
2022/07/07 00:50:47;;;;;;;4.05;1.70;;;;;;;14.94;98.72;101971.91;5072962;28;20021;-84
2022/07/07 00:53:13;;;;;;;2.60;1.67;;;;;;;14.90;98.86;101959.81;5070860;28;20119;-83
2022/07/07 00:55:39;;;;;;;5.47;2.08;;;;;;;14.85;99.15;101960.22;5038843;28;20103;-83
2022/07/07 00:58:06;;;;;;;4.90;2.13;;;;;;;14.85;99.27;101957.56;5054691;28;20061;-84
2022/07/07 01:00:32;;;;;;;4.30;1.95;;;;;;;14.82;99.44;101965.81;5071448;28;20028;-84
2022/07/07 01:02:58;;;;;;;6.45;2.17;;;;;;;14.88;99.24;101957.28;5033161;28;20039;-83
2022/07/07 01:05:25;;;;;;;3.83;1.85;;;;;;;14.88;99.34;101965.28;5055292;28;20478;-83
2022/07/07 01:07:52;;;;;;;3.97;1.95;;;;;;;14.85;99.48;101962.88;5072337;28;20044;-83
2022/07/07 01:10:18;;;;;;;5.20;2.17;;;;;;;14.81;99.82;101954.31;5053934;28;20028;-84
2022/07/07 01:12:44;;;;;;;3.92;2.38;;;;;;;14.83;99.62;101960.34;5072246;28;20541;-84
2022/07/07 01:15:12;;;;;;;3.88;1.73;;;;;;;14.87;99.49;101952.94;5055156;28;20036;-84
2022/07/07 01:17:39;;;;;;;4.18;1.85;;;;;;;14.87;99.61;101959.09;5056077;28;20033;-83
2022/07/07 01:20:07;;;;;;;5.35;1.80;;;;;;;14.90;99.55;101963.31;5055780;28;20380;-84
2022/07/07 01:22:37;;;;;;;3.42;1.70;;;;;;;14.90;99.55;101960.66;5069247;28;20039;-83
2022/07/07 01:25:05;;;;;;;5.90;1.85;;;;;;;14.86;99.62;101954.75;5069005;28;20393;-83
2022/07/07 01:27:30;;;;;;;4.07;1.90;;;;;;;14.84;99.75;101954.03;5055501;28;20070;-83
2022/07/07 01:29:57;;;;;;;5.93;2.47;;;;;;;14.84;100.00;101947.91;5061865;28;20033;-84
2022/07/07 01:32:24;;;;;;;4.53;1.92;;;;;;;14.84;100.00;101942.56;5051889;28;20481;-84
2022/07/07 01:34:51;;;;;;;5.80;2.30;;;;;;;14.90;100.00;101946.50;5054085;28;20029;-83
2022/07/07 01:37:18;;;;;;;7.50;2.60;;;;;;;14.94;99.83;101942.59;5066209;28;20078;-83
2022/07/07 01:39:44;;;;;;;6.05;3.00;;;;;;;14.99;99.58;101941.22;5056427;28;20063;-83
2022/07/07 01:42:10;;;;;;;9.77;3.55;;;;;;;15.05;99.52;101941.66;5025509;28;20489;-79
2022/07/07 01:44:38;;;;;;;10.27;3.47;;;;;;;15.13;99.24;101936.44;5056424;28;20031;-79
2022/07/07 01:47:05;;;;;;;9.27;3.53;;;;;;;15.11;99.42;101933.94;5052665;28;20448;-78
2022/07/07 01:49:32;;;;;;;8.35;3.45;;;;;;;15.12;99.35;101942.78;5053177;28;20067;-78
2022/07/07 01:52:00;;;;;;;8.13;3.45;;;;;;;15.11;99.50;101938.44;5049300;28;20032;-84
2022/07/07 01:54:27;;;;;;;6.95;3.30;;;;;;;15.12;99.57;101940.09;5051187;28;20033;-83
2022/07/07 01:56:53;;;;;;;7.63;3.58;;;;;;;15.12;99.66;101946.28;5069163;28;20112;-83
2022/07/07 01:59:19;;;;;;;6.22;2.95;;;;;;;15.13;99.66;101947.09;5052978;28;20071;-84
2022/07/07 02:01:44;;;;;;;9.52;3.45;;;;;;;15.13;99.58;101944.44;5052776;28;20060;-83
2022/07/07 02:04:10;;;;;;;10.45;3.45;;;;;;;15.13;99.66;101942.63;5052840;28;20473;-84
2022/07/07 02:06:38;;;;;;;7.20;3.00;;;;;;;15.14;99.89;101938.16;5067974;28;20482;-79
2022/07/07 02:09:05;;;;;;;7.78;2.88;;;;;;;15.16;99.83;101946.81;5048049;28;20033;-79
2022/07/07 02:11:30;;;;;;;7.40;2.92;;;;;;;15.17;99.99;101945.88;5051740;28;20489;-79
2022/07/07 02:13:56;;;;;;;4.47;2.50;;;;;;;15.18;99.71;101942.22;5048284;28;20032;-79
2022/07/07 02:16:24;;;;;;;7.70;2.50;;;;;;;15.19;99.75;101933.25;5027077;28;20025;-78
2022/07/07 02:18:54;;;;;;;5.20;2.13;;;;;;;15.16;99.83;101941.50;5061340;28;20067;-79
2022/07/07 02:21:21;;;;;;;7.13;2.10;;;;;;;15.19;100.00;101938.59;5032826;28;20079;-78
2022/07/07 02:23:48;;;;;;;6.75;2.72;;;;;;;15.23;99.87;101945.31;5047133;28;20501;-84
2022/07/07 02:26:14;;;;;;;3.78;1.83;;;;;;;15.24;99.72;101951.50;5048110;28;20061;-83
2022/07/07 02:28:40;;;;;;;6.20;2.25;;;;;;;15.23;99.73;101947.97;5042723;28;20048;-79
2022/07/07 02:31:06;;;;;;;5.65;2.25;;;;;;;15.23;99.54;101945.31;5048015;28;20086;-79
2022/07/07 02:33:32;;;;;;;7.43;2.58;;;;;;;15.29;99.44;101949.22;5051386;28;20032;-79
2022/07/07 02:35:58;;;;;;;5.55;2.42;;;;;;;15.32;99.28;101948.13;5049409;28;20449;-78
2022/07/07 02:38:25;;;;;;;5.28;2.00;;;;;;;15.25;99.21;101938.03;5050915;28;20041;-79
2022/07/07 02:40:52;;;;;;;3.80;1.90;;;;;;;15.24;99.58;101946.16;5048252;28;20554;-79
2022/07/07 02:43:18;;;;;;;7.03;1.90;;;;;;;15.20;99.65;101948.25;5064994;28;20033;-83
2022/07/07 02:45:47;;;;;;;4.80;2.10;;;;;;;15.19;99.87;101945.72;5032931;28;20515;-83
2022/07/07 02:48:16;;;;;;;3.45;1.92;;;;;;;15.15;99.96;101947.81;5063269;28;20033;-83
2022/07/07 02:50:42;;;;;;;3.53;1.52;;;;;;;15.12;100.00;101945.44;5030400;28;20108;-84
2022/07/07 02:53:10;;;;;;;4.43;1.40;;;;;;;15.10;100.00;101945.56;5069073;28;20127;-84
2022/07/07 02:55:36;;;;;;;3.03;1.80;;;;;;;15.10;100.00;101945.56;5052611;28;20024;-83
2022/07/07 02:58:04;;;;;;;3.08;1.20;;;;;;;15.08;100.00;101941.38;5054308;28;20032;-83
2022/07/07 03:00:33;;;;;;;4.15;1.20;;;;;;;15.05;100.00;101938.97;5071005;28;20028;-83
2022/07/07 03:03:04;;;;;;;5.05;1.23;;;;;;;15.04;100.00;101946.13;5070560;28;20044;-84
2022/07/07 03:05:30;;;;;;;3.92;1.38;;;;;;;15.02;100.00;101941.91;5049870;28;20102;-84
2022/07/07 03:07:56;;;;;;;4.53;1.20;;;;;;;15.02;100.00;101942.75;5066227;28;20033;-84
2022/07/07 03:10:22;;;;;;;2.97;1.23;;;;;;;14.99;100.00;101935.88;5071687;28;20024;-83
2022/07/07 03:12:49;;;;;;;1.38;1.02;;;;;;;14.99;100.00;101932.38;5053761;28;20032;-84
2022/07/07 03:15:15;;;;;;;1.25;0.70;;;;;;;14.98;100.00;101928.88;5048501;28;20077;-83
2022/07/07 03:17:42;;;;;;;1.88;0.70;;;;;;;14.98;100.00;101926.22;5052870;28;20032;-79
2022/07/07 03:20:11;;;;;;;3.22;0.93;;;;;;;15.00;100.00;101924.25;5070272;28;20036;-79
2022/07/07 03:22:37;;;;;;;1.52;0.95;;;;;;;15.02;100.00;101923.28;5065309;28;20044;-83
2022/07/07 03:25:04;;;;;;;0.85;0.75;;;;;;;15.04;100.00;101931.94;5046862;28;20037;-83
2022/07/07 03:27:31;;;;;;;1.25;0.90;;;;;;;15.07;99.51;101935.19;5071179;28;20043;-83
2022/07/07 03:29:57;;;;;;;2.13;0.90;;;;;;;15.11;99.45;101936.59;5053760;28;20086;-83
2022/07/07 03:32:23;;;;;;;2.40;0.65;;;;;;;15.16;98.88;101933.50;5070315;28;20029;-84
2022/07/07 03:34:48;;;;;;;2.88;0.60;;;;;;;15.18;98.57;101941.41;5070550;28;20042;-84
2022/07/07 03:37:15;;;;;;;0.70;0.50;;;;;;;15.25;98.34;101947.84;5070308;28;20041;-84
2022/07/07 03:39:41;;;;;;;1.45;0.52;;;;;;;15.31;97.93;101944.63;5066397;28;20122;-83
2022/07/07 03:42:07;;;;;;;1.33;0.73;;;;;;;15.38;97.56;101952.91;5069705;28;20052;-83
2022/07/07 03:44:33;;;;;;;2.10;0.73;;;;;;;15.42;97.09;101948.13;5053092;28;20036;-83
2022/07/07 03:46:59;;;;;;;2.85;1.10;;;;;;;15.50;96.98;101949.13;5068980;28;20068;-84
2022/07/07 03:49:25;;;;;;;2.00;1.00;;;;;;;15.57;96.29;101948.56;5053897;28;20071;-83
2022/07/07 03:51:51;;;;;;;1.73;1.00;;;;;;;15.62;95.97;101941.81;5069678;28;20036;-83
2022/07/07 03:54:17;;;;;;;4.35;1.10;;;;;;;15.65;95.74;101959.38;5070626;28;20064;-84
2022/07/07 03:56:43;;;;;;;4.90;1.50;;;;;;;15.68;95.60;101960.91;5052820;28;20119;-80
2022/07/07 03:59:08;;;;;;;3.38;1.05;;;;;;;15.67;95.53;101956.56;5040643;28;20615;-79
2022/07/07 04:01:36;;;;;;;3.30;1.30;;;;;;;15.66;95.51;101960.19;5053524;28;20405;-83
2022/07/07 04:04:04;;;;;;;3.58;1.20;;;;;;;15.66;95.43;101960.19;5069412;28;20107;-83
2022/07/07 04:06:31;;;;;;;1.67;0.70;;;;;;;15.63;95.38;101966.66;5053220;28;20033;-83
2022/07/07 04:08:57;;;;;;;2.35;1.33;;;;;;;15.60;95.32;101970.44;5061456;28;20076;-83
2022/07/07 04:11:23;;;;;;;3.40;1.58;;;;;;;15.56;95.74;101963.69;5020429;28;20036;-84
2022/07/07 04:13:49;;;;;;;2.47;1.08;;;;;;;15.57;95.71;101973.41;5070908;28;20032;-84
2022/07/07 04:16:15;;;;;;;2.13;1.02;;;;;;;15.57;95.88;101969.88;5036759;28;20386;-83
2022/07/07 04:18:41;;;;;;;1.20;0.70;;;;;;;15.59;95.83;101978.59;5071604;28;20024;-83
2022/07/07 04:21:07;;;;;;;1.63;0.98;;;;;;;15.59;95.91;101982.06;5071079;28;20452;-83
2022/07/07 04:23:33;;;;;;;1.48;1.20;;;;;;;15.58;95.95;101984.88;5071868;28;20028;-83
2022/07/07 04:25:58;;;;;;;1.55;0.82;;;;;;;15.54;95.96;101981.66;5070439;28;20068;-83
2022/07/07 04:28:24;;;;;;;2.08;0.82;;;;;;;15.48;96.11;101980.38;5054361;28;20036;-83
2022/07/07 04:30:50;;;;;;;1.63;0.80;;;;;;;15.39;96.20;101983.88;5070811;28;20491;-83
2022/07/07 04:33:16;;;;;;;1.77;0.80;;;;;;;15.33;96.92;101982.63;5054369;28;20094;-79
2022/07/07 04:35:42;;;;;;;1.00;0.70;;;;;;;15.28;97.38;101982.19;5071096;28;20093;-79
2022/07/07 04:38:08;;;;;;;0.95;0.52;;;;;;;15.21;97.93;101986.41;5071570;28;20032;-84
2022/07/07 04:40:34;;;;;;;1.95;0.60;;;;;;;15.10;98.81;101993.50;5067179;28;20032;-83
2022/07/07 04:42:59;;;;;;;2.50;0.80;;;;;;;15.04;99.41;101986.06;5052688;28;20058;-83
2022/07/07 04:45:25;;;;;;;2.67;0.70;;;;;;;14.99;99.62;101986.47;5054847;28;20025;-83
2022/07/07 04:47:51;;;;;;;4.13;0.73;;;;;;;14.93;99.92;101988.81;5072695;28;20070;-83
2022/07/07 04:50:17;;;;;;;1.30;0.70;;;;;;;14.91;100.00;101996.94;5057648;28;20040;-83
2022/07/07 04:52:42;;;;;;;2.58;0.77;;;;;;;14.91;100.00;101999.59;5057567;28;20393;-83
2022/07/07 04:55:08;;;;;;;4.03;0.70;;;;;;;14.95;100.00;102008.19;5057094;28;20033;-84
2022/07/07 04:57:34;;;;;;;0.77;0.68;;;;;;;14.99;99.97;102013.09;5074859;28;20036;-84
2022/07/07 05:00:00;;;;;;;2.55;1.02;;;;;;;15.04;99.67;102015.34;5056548;28;20039;-83
2022/07/07 05:02:26;;;;;;;3.83;1.02;;;;;;;15.06;99.50;102013.41;5072744;28;20507;-83
2022/07/07 05:04:52;;;;;;;1.58;0.82;;;;;;;15.09;98.96;102026.44;5055591;28;20051;-84
2022/07/07 05:07:19;;;;;;;3.00;0.80;;;;;;;15.16;98.75;102029.38;5055229;28;20032;-83
2022/07/07 05:09:45;;;;;;;2.22;0.75;;;;;;;15.16;98.43;102033.91;5073842;28;20033;-83
2022/07/07 05:12:11;;;;;;;5.13;0.88;;;;;;;15.19;98.48;102036.28;5056110;28;20111;-83
2022/07/07 05:14:37;;;;;;;0.60;0.60;;;;;;;15.21;98.27;102043.16;5068369;28;20033;-83
2022/07/07 05:17:03;;;;;;;2.95;0.80;;;;;;;15.23;98.05;102040.34;5061694;28;20047;-84
2022/07/07 05:19:29;;;;;;;2.45;1.33;;;;;;;15.28;97.84;102046.13;5056314;28;20066;-83
2022/07/07 05:21:54;;;;;;;1.73;1.20;;;;;;;15.29;97.86;102042.47;5039536;28;20036;-79
2022/07/07 05:24:21;;;;;;;3.90;1.13;;;;;;;15.29;97.69;102046.97;5068406;28;20100;-79
2022/07/07 05:26:47;;;;;;;2.15;1.30;;;;;;;15.30;97.72;102051.31;5048700;28;20028;-79
2022/07/07 05:29:13;;;;;;;4.38;1.08;;;;;;;15.32;97.69;102049.38;5055701;28;20035;-79
2022/07/07 05:31:40;;;;;;;3.47;1.20;;;;;;;15.36;97.61;102051.63;5072589;28;20116;-83
2022/07/07 05:34:06;;;;;;;2.80;1.25;;;;;;;15.38;97.30;102046.97;5055445;28;20116;-83
2022/07/07 05:36:32;;;;;;;2.55;0.90;;;;;;;15.41;97.27;102053.88;5038512;28;20127;-83
2022/07/07 05:38:59;;;;;;;5.00;1.25;;;;;;;15.44;97.35;102056.25;5055290;28;20480;-83
2022/07/07 05:41:25;;;;;;;2.13;0.98;;;;;;;15.48;97.26;102052.34;5072140;28;20404;-83
2022/07/07 05:43:50;;;;;;;2.88;1.10;;;;;;;15.50;97.10;102055.72;5055384;28;20039;-79
2022/07/07 05:46:16;;;;;;;2.15;1.23;;;;;;;15.55;96.69;102068.63;5068352;28;20055;-79
2022/07/07 05:48:42;;;;;;;4.35;1.63;;;;;;;15.59;96.79;102066.53;5054931;28;20436;-83
2022/07/07 05:51:08;;;;;;;2.03;1.20;;;;;;;15.63;96.58;102074.13;5055257;28;20400;-84
2022/07/07 05:53:34;;;;;;;2.28;1.08;;;;;;;15.63;96.41;102073.25;5073215;28;20085;-83
2022/07/07 05:55:59;;;;;;;5.28;1.60;;;;;;;15.65;96.39;102068.66;5038425;28;20032;-83
2022/07/07 05:58:25;;;;;;;3.30;1.45;;;;;;;15.65;96.50;102071.31;5049175;28;20024;-84
2022/07/07 06:00:52;;;;;;;3.63;1.30;;;;;;;15.67;96.38;102076.50;5038270;28;20147;-84
2022/07/07 06:03:18;;;;;;;2.42;0.90;;;;;;;15.62;96.23;102067.09;5058758;28;20066;-83
2022/07/07 06:05:43;;;;;;;1.65;0.85;;;;;;;15.59;96.50;102082.53;5054898;28;20032;-83
2022/07/07 06:08:09;;;;;;;2.28;0.90;;;;;;;15.53;96.60;102083.06;5069901;28;20029;-84
2022/07/07 06:10:36;;;;;;;1.10;0.90;;;;;;;15.50;96.50;102082.38;5048432;28;20036;-83
2022/07/07 06:13:02;;;;;;;2.03;1.00;;;;;;;15.42;96.68;102079.53;5038736;28;20043;-83
2022/07/07 06:15:32;;;;;;;2.83;0.90;;;;;;;15.35;96.74;102081.88;5070704;28;20024;-83
2022/07/07 06:18:03;;;;;;;3.65;1.25;;;;;;;15.38;96.87;102086.94;5054404;28;20055;-83
2022/07/07 06:20:29;;;;;;;2.20;1.00;;;;;;;15.43;96.81;102088.38;5067194;28;20020;-84
2022/07/07 06:22:56;;;;;;;2.13;1.00;;;;;;;15.42;96.78;102086.66;5064433;28;20111;-84
2022/07/07 06:25:22;;;;;;;1.95;0.80;;;;;;;15.47;96.59;102092.44;5054701;28;20035;-84
2022/07/07 06:27:48;;;;;;;2.67;1.00;;;;;;;15.47;96.25;102095.97;5070340;28;20451;-83
2022/07/07 06:30:14;;;;;;;2.33;0.77;;;;;;;15.43;96.34;102093.69;5072521;28;20123;-84
2022/07/07 06:32:40;;;;;;;0.63;0.50;;;;;;;15.43;96.24;102089.19;5068025;28;20116;-84
2022/07/07 06:35:06;;;;;;;2.85;0.73;;;;;;;15.41;96.20;102087.66;5008567;28;20378;-84
2022/07/07 06:37:32;;;;;;;1.20;0.52;;;;;;;15.34;96.40;102098.84;5071318;28;20021;-83
2022/07/07 06:39:58;;;;;;;2.42;0.95;;;;;;;15.27;96.76;102100.38;5050964;28;20087;-83
2022/07/07 06:42:24;;;;;;;6.50;0.95;;;;;;;15.31;97.08;102098.28;5048752;28;20044;-79
2022/07/07 06:44:59;;;;;;;2.28;0.82;;;;;;;15.31;97.09;102098.28;5053532;28;20074;-79
2022/07/07 06:47:25;;;;;;;1.02;0.60;;;;;;;15.39;96.98;102106.44;5067299;28;20437;-83
2022/07/07 06:49:51;;;;;;;1.30;0.60;;;;;;;15.44;96.79;102112.22;5071515;28;20380;-84
2022/07/07 06:52:16;;;;;;;0.68;0.55;;;;;;;15.47;96.46;102116.44;5054446;28;20420;-79
2022/07/07 06:54:42;;;;;;;0.50;0.40;;;;;;;15.45;96.45;102115.75;5069330;28;20416;-79
2022/07/07 06:57:08;;;;;;;3.28;0.40;;;;;;;15.44;96.32;102120.22;5045519;28;20064;-83
2022/07/07 06:59:35;;;;;;;2.53;0.50;;;;;;;15.40;96.56;102120.63;5069859;28;20055;-84
2022/07/07 07:02:02;;;;;;;1.02;0.57;;;;;;;15.49;96.74;102127.81;5053597;28;20033;-83
2022/07/07 07:04:28;;;;;;;1.50;0.75;;;;;;;15.52;96.13;102124.00;5053254;28;20036;-83
2022/07/07 07:06:54;;;;;;;2.22;0.30;;;;;;;15.61;96.18;102141.84;5073129;28;20070;-83
2022/07/07 07:09:20;;;;;;;2.40;0.40;;;;;;;15.65;96.08;102142.44;5071169;28;20032;-83
2022/07/07 07:11:46;;;;;;;4.18;0.70;;;;;;;15.63;95.91;102145.22;5054840;28;20109;-83
2022/07/07 07:14:13;;;;;;;1.10;0.60;;;;;;;15.64;95.50;102146.91;5071613;28;20036;-83
2022/07/07 07:16:39;;;;;;;2.13;0.60;;;;;;;15.62;95.56;102140.88;5054921;28;20392;-83
2022/07/07 07:19:05;;;;;;;1.55;0.65;;;;;;;15.60;95.81;102145.50;5071127;28;20032;-83
2022/07/07 07:21:32;;;;;;;3.25;0.80;;;;;;;15.58;96.20;102144.78;5053455;28;20044;-83
2022/07/07 07:23:58;;;;;;;3.95;0.50;;;;;;;15.52;96.43;102148.84;5060351;28;20028;-79
2022/07/07 07:26:24;;;;;;;0.70;0.45;;;;;;;15.58;96.55;102150.97;5054116;28;20496;-79
2022/07/07 07:28:50;;;;;;;0.50;0.30;;;;;;;15.52;96.16;102151.50;5038248;28;20031;-83
2022/07/07 07:31:16;;;;;;;0.73;0.38;;;;;;;15.47;96.45;102151.91;5068634;28;20036;-83
2022/07/07 07:33:42;;;;;;;0.68;0.40;;;;;;;15.43;96.59;102139.00;5052972;28;20111;-83
2022/07/07 07:36:09;;;;;;;2.58;0.47;;;;;;;15.47;96.59;102146.59;5053862;28;20036;-83
2022/07/07 07:38:39;;;;;;;1.20;0.28;;;;;;;15.58;96.80;102156.31;5022207;28;20040;-79
2022/07/07 07:41:11;;;;;;;1.65;0.73;;;;;;;15.65;96.55;102155.75;5067104;28;20036;-79
2022/07/07 07:43:38;;;;;;;0.40;0.32;;;;;;;15.65;96.14;102153.09;5054531;28;20048;-83
2022/07/07 07:46:04;;;;;;;1.35;0.40;;;;;;;15.68;96.27;102150.16;5067421;28;20115;-84
2022/07/07 07:48:30;;;;;;;0.68;0.30;;;;;;;15.70;95.63;102151.69;5069776;28;20032;-79
2022/07/07 07:50:56;;;;;;;0.77;0.22;;;;;;;15.74;95.72;102144.28;5065963;28;20083;-79
2022/07/07 07:53:22;;;;;;;0.32;0.20;;;;;;;15.77;95.28;102145.84;5069577;28;20100;-84
2022/07/07 07:55:48;;;;;;;0.15;0.13;;;;;;;15.85;95.38;102143.31;5063174;28;20460;-84
2022/07/07 07:58:13;;;;;;;0.20;0.20;;;;;;;15.88;94.65;102145.69;5059449;28;20028;-83
2022/07/07 08:00:39;;;;;;;1.20;0.25;;;;;;;15.95;94.44;102151.34;5063278;28;20396;-83
2022/07/07 08:03:05;;;;;;;0.77;0.25;;;;;;;15.99;94.54;102150.94;5067513;28;20067;-79
2022/07/07 08:05:31;;;;;;;0.30;0.30;;;;;;;15.98;94.14;102151.09;5069181;28;20075;-78
2022/07/07 08:07:57;;;;;;;0.45;0.20;;;;;;;15.99;93.79;102150.09;5034505;28;20094;-83
2022/07/07 08:10:23;;;;;;;1.63;0.40;;;;;;;15.99;93.67;102155.44;5070011;28;20064;-83
2022/07/07 08:12:49;;;;;;;2.92;0.40;;;;;;;15.98;93.50;102157.28;5069948;28;20028;-83
2022/07/07 08:15:16;;;;;;;2.83;0.55;;;;;;;16.01;93.64;102153.47;5050150;28;20121;-83
2022/07/07 08:17:44;;;;;;;0.63;0.38;;;;;;;16.08;93.51;102151.97;5034559;28;20040;-79
2022/07/07 08:20:10;;;;;;;2.28;0.40;;;;;;;16.15;93.51;102162.91;5036943;28;20041;-79
2022/07/07 08:22:37;;;;;;;0.40;0.40;;;;;;;16.15;92.89;102165.56;5040405;28;20028;-79
2022/07/07 08:25:03;;;;;;;0.68;0.30;;;;;;;16.15;92.46;102167.41;5039108;28;20416;-79
2022/07/07 08:27:30;;;;;;;1.15;0.40;;;;;;;16.18;92.76;102156.47;5038856;28;20112;-83
2022/07/07 08:29:56;;;;;;;1.48;0.68;;;;;;;16.26;92.66;102161.09;5055410;28;20040;-84
2022/07/07 08:32:22;;;;;;;0.52;0.30;;;;;;;16.31;92.54;102157.00;5055352;28;20036;-84
2022/07/07 08:34:48;;;;;;;0.65;0.30;;;;;;;16.37;92.48;102163.63;5071894;28;20039;-83
2022/07/07 08:37:14;;;;;;;0.57;0.30;;;;;;;16.36;91.78;102173.44;5066917;28;20054;-83
2022/07/07 08:39:40;;;;;;;1.58;0.40;;;;;;;16.46;91.90;102169.94;5073044;28;20052;-83
2022/07/07 08:42:06;;;;;;;1.15;0.43;;;;;;;16.56;91.43;102169.94;5073238;28;20056;-84
2022/07/07 08:44:32;;;;;;;0.30;0.30;;;;;;;16.66;91.01;102172.59;5055906;28;20530;-84
2022/07/07 08:46:59;;;;;;;0.40;0.40;;;;;;;16.77;90.99;102167.09;5055708;28;20044;-79
2022/07/07 08:49:27;;;;;;;0.40;0.40;;;;;;;16.89;90.28;102172.28;5056468;28;20036;-79
2022/07/07 08:51:55;;;;;;;0.82;0.40;;;;;;;17.00;90.02;102180.13;5055499;28;20032;-84
2022/07/07 08:54:22;;;;;;;0.65;0.40;;;;;;;17.05;89.63;102175.19;5055712;28;20505;-84
2022/07/07 08:56:48;;;;;;;0.38;0.32;;;;;;;17.05;88.70;102172.53;5067927;28;20473;-84
2022/07/07 08:59:14;;;;;;;0.57;0.40;;;;;;;16.99;88.64;102176.59;5062581;28;20039;-84
2022/07/07 09:01:41;;;;;;;2.40;0.40;;;;;;;16.97;88.83;102177.75;5038922;28;20035;-80
2022/07/07 09:04:07;;;;;;;3.05;1.00;;;;;;;17.05;89.11;102179.69;5071983;28;20054;-79
2022/07/07 09:06:33;;;;;;;1.60;0.40;;;;;;;17.21;88.69;102185.31;5071513;28;20029;-82
2022/07/07 09:09:01;;;;;;;0.32;0.32;;;;;;;17.35;87.96;102185.81;5071452;28;20524;-84
2022/07/07 09:11:33;;;;;;;1.25;0.52;;;;;;;17.39;87.41;102178.34;5071535;28;20025;-84
2022/07/07 09:14:15;;;;;;;1.67;0.80;;;;;;;17.36;86.87;102176.78;5070115;28;20024;-79
2022/07/07 09:16:41;;;;;;;0.70;0.30;;;;;;;17.34;87.33;102182.28;5069973;28;20045;-79
2022/07/07 09:19:21;;;;;;;2.17;0.52;;;;;;;17.23;87.38;102191.34;5054706;28;20032;-79
2022/07/07 09:21:48;;;;;;;0.75;0.40;;;;;;;17.32;87.75;102189.63;5052963;28;20439;-84
2022/07/07 09:24:14;;;;;;;0.70;0.40;;;;;;;17.51;87.73;102184.34;5070383;28;20036;-84
2022/07/07 09:26:45;;;;;;;0.40;0.40;;;;;;;17.66;86.75;102187.38;5054082;28;20445;-84
2022/07/07 09:29:20;;;;;;;2.95;1.58;;;;;;;17.63;86.14;102201.88;5054173;28;20541;-84
2022/07/07 09:32:00;;;;;;;1.20;0.47;;;;;;;17.66;85.71;102201.56;5068077;28;20032;-83
2022/07/07 09:34:29;;;;;;;2.15;0.50;;;;;;;17.78;85.95;102206.72;5070142;28;20028;-85
2022/07/07 09:39:48;;;;;;;;;;;;;;;17.85;85.42;102205.97;5037976;28;20040;-83
2022/07/07 09:42:18;;;;;;;1.00;0.30;;;;;;;18.02;85.12;102200.81;5051479;28;20007;-85
2022/07/07 09:44:49;;;;;;;1.75;0.30;;;;;;;18.01;84.48;102199.16;5053783;28;20385;-84
2022/07/07 09:47:15;;;;;;;0.65;0.47;;;;;;;18.03;84.73;102196.31;5053785;28;20048;-84
2022/07/07 09:49:45;;;;;;;0.55;0.40;;;;;;;18.02;84.50;102192.78;5075010;28;20115;-83
2022/07/07 09:52:17;;;;;;;0.50;0.30;;;;;;;18.06;84.55;102194.16;5053554;28;20025;-79
2022/07/07 09:54:49;;;;;;;0.80;0.40;;;;;;;18.06;83.94;102191.50;5054707;28;20028;-79
2022/07/07 09:57:16;;;;;;;0.63;0.50;;;;;;;18.24;84.55;102198.72;5055342;28;20937;-84
2022/07/07 09:59:43;;;;;;;0.70;0.50;;;;;;;18.41;83.82;102197.03;5053145;28;20062;-84
2022/07/07 10:02:20;;;;;;;0.50;0.40;;;;;;;18.65;83.09;102194.75;5034367;28;20040;-83
2022/07/07 10:04:49;;;;;;;0.50;0.30;;;;;;;18.86;82.10;102191.69;5049294;28;20081;-83
2022/07/07 10:07:21;;;;;;;0.80;0.57;;;;;;;19.03;81.60;102187.28;5053809;28;20051;-84
2022/07/07 10:10:02;;;;;;;0.25;0.25;;;;;;;19.24;80.87;102188.78;5037196;28;20514;-84
2022/07/07 10:12:29;;;;;;;2.47;0.70;;;;;;;19.32;80.67;102186.16;5050844;28;20037;-84
2022/07/07 10:15:00;;;;;;;0.88;0.50;;;;;;;19.46;80.42;102194.59;5039099;28;20139;-83
2022/07/07 10:17:30;;;;;;;1.05;0.40;;;;;;;19.63;80.08;102194.66;5053270;28;20464;-84
2022/07/07 10:19:57;;;;;;;1.33;0.70;;;;;;;19.68;79.42;102203.06;5058532;28;20107;-83
2022/07/07 10:22:27;;;;;;;1.02;0.70;;;;;;;19.58;79.36;102203.19;5064725;28;20036;-84
2022/07/07 10:24:54;;;;;;;0.80;0.50;;;;;;;19.59;79.28;102202.19;5043006;28;20106;-84
2022/07/07 10:27:23;;;;;;;0.77;0.60;;;;;;;19.56;79.23;102210.56;5064389;28;20074;-83
2022/07/07 10:29:52;;;;;;;0.90;0.40;;;;;;;19.54;79.40;102207.22;5033450;28;20127;-83
2022/07/07 10:32:39;;;;;;;0.63;0.52;;;;;;;19.53;79.31;102213.56;5051104;28;20074;-84
2022/07/07 10:35:08;;;;;;;1.67;0.57;;;;;;;19.59;79.89;102218.28;5062054;28;20029;-83
2022/07/07 10:37:45;;;;;;;1.75;0.60;;;;;;;19.61;79.17;102224.31;5070825;28;20119;-79
2022/07/07 10:40:38;;;;;;;0.73;0.40;;;;;;;19.55;79.34;102217.78;5053357;28;20512;-79
2022/07/07 10:43:31;;;;;;;0.98;0.80;;;;;;;19.38;78.85;102222.22;5058270;28;20040;-84
2022/07/07 10:45:57;;;;;;;1.08;0.70;;;;;;;19.23;80.22;102221.09;5029987;28;20409;-84
2022/07/07 10:48:46;;;;;;;0.75;0.70;;;;;;;19.33;80.59;102221.84;5052921;28;20071;-83
2022/07/07 10:51:25;;;;;;;0.80;0.80;;;;;;;19.53;80.68;102226.97;5049920;28;20032;-83
2022/07/07 10:54:03;;;;;;;3.60;1.00;;;;;;;19.69;80.34;102229.72;5071004;28;20028;-84
2022/07/07 10:56:51;;;;;;;1.63;0.90;;;;;;;19.81;79.87;102226.75;5054436;28;20040;-83
2022/07/07 10:59:22;;;;;;;0.80;0.80;;;;;;;20.03;80.16;102236.09;5067593;28;20098;-83
2022/07/07 11:02:09;;;;;;;1.20;0.90;;;;;;;20.17;79.20;102234.59;5068648;28;20032;-84
2022/07/07 11:04:42;;;;;;;0.88;0.85;;;;;;;20.31;78.73;102243.00;5052723;28;20048;-83
2022/07/07 11:07:14;;;;;;;3.10;0.95;;;;;;;20.28;77.60;102243.34;5035682;28;20053;-83
2022/07/07 11:09:59;;;;;;;0.98;0.77;;;;;;;20.20;76.33;102244.16;5052306;28;20078;-83
2022/07/07 11:12:37;;;;;;;0.97;0.77;;;;;;;20.15;77.10;102254.56;5027936;28;20068;-79
2022/07/07 11:15:16;;;;;;;1.30;1.00;;;;;;;20.20;77.26;102254.91;5050594;28;20480;-79
2022/07/07 11:17:42;;;;;;;2.28;1.25;;;;;;;20.23;77.39;102254.56;5041322;28;20036;-78
2022/07/07 11:20:20;;;;;;;1.38;1.10;;;;;;;20.20;77.04;102255.75;5069676;28;20154;-78
2022/07/07 11:22:52;;;;;;;1.67;1.13;;;;;;;20.18;77.49;102263.13;5069377;28;20032;-79
2022/07/07 11:25:21;;;;;;;1.55;1.40;;;;;;;20.04;77.38;102266.44;5051667;28;20066;-79
2022/07/07 11:27:48;;;;;;;1.20;1.10;;;;;;;20.11;77.68;102266.63;5068273;28;20032;-83
2022/07/07 11:30:16;;;;;;;2.65;1.52;;;;;;;20.20;77.28;102268.34;5068775;28;20036;-83